Hauptseite
METAR-TAF:

METAR-TAF

Flughäfen :

Seyresse

Dax, Frankreich

Breite: 43-41N, Länge: 001-04W, Höhe: 32 m

Beobachtung

Neuester Wetterbericht von vor 18 Stunden und 39 Minuten, um 12:00 UTC
Wind 6 kt aus Nordwest, variierte zwischen West und Nord
Temperatur 12°C
Luftfeuchtigkeit 67%
Luftdruck 1018 hPa
Sichtweite 10 km oder mehr

METAR: LFBY 111200Z AUTO 32006KT 260V360 9999 // ////// 12/06 Q1018

Zeit: 08:39 (06:39 UTC)


TAF: fehlend

Wetterbeobachtungen und Prognosen von mehr als 4000 Flughäfen (METAR und TAF Bericht).

Die verfügbaren Stationen werden durch gelbe und rote Markierungen auf der Karte dargestellt.

Führen Sie die Maus auf sie, um den Namen der Station zu sehen.

Darauf klicken, um die Beobachtung von Wetterbeobachtungen und Prognosen zu sehen.

Um die Karte zu ändern : klicken Sie auf den grünen Tasten mit einem schwarzen Kreuz Zum Vergrößern, auf den grünen Button mit einem Gedankenstrich zu verkleinern, oder auf die grünen Pfeile für benachbarte Karten.


METAR-TAF: